createdAt,value
2017-03-24T00:00:06.001Z,33.7
2017-03-24T00:02:05.713Z,33.7
2017-03-24T00:04:05.406Z,33.6
2017-03-24T00:06:10.443Z,33.6
2017-03-24T00:08:05.143Z,33.6
2017-03-24T00:10:10.433Z,33.7
2017-03-24T00:12:05.318Z,33.7
2017-03-24T00:14:05.580Z,33.6
2017-03-24T00:16:05.279Z,33.7
2017-03-24T00:18:05.348Z,33.6
2017-03-24T00:20:05.055Z,33.6
2017-03-24T00:22:05.903Z,33.6
2017-03-24T00:24:05.749Z,33.6
2017-03-24T00:26:06.065Z,33.6
2017-03-24T00:28:08.322Z,33.6
2017-03-24T00:30:05.839Z,33.6
2017-03-24T00:32:05.560Z,33.6
2017-03-24T00:34:05.259Z,33.4
2017-03-24T00:36:06.219Z,33.6
2017-03-24T00:38:06.187Z,33.6
2017-03-24T00:40:05.886Z,33.4
2017-03-24T00:42:07.746Z,33.4
2017-03-24T00:44:05.517Z,33.4
2017-03-24T00:46:05.192Z,33.7
2017-03-24T00:48:06.065Z,33.7
2017-03-24T00:50:05.814Z,33.6
2017-03-24T00:52:05.496Z,33.6
2017-03-24T00:54:10.440Z,33.4
2017-03-24T00:56:05.161Z,33.6
2017-03-24T00:58:05.923Z,33.6
2017-03-24T01:00:05.337Z,33.6
2017-03-24T01:02:05.072Z,33.6
2017-03-24T01:04:05.810Z,33.6
2017-03-24T01:06:05.659Z,33.6
2017-03-24T01:08:06.066Z,33.6
2017-03-24T01:10:06.057Z,33.3
2017-03-24T01:12:05.911Z,33.4
2017-03-24T01:14:05.649Z,33.4
2017-03-24T01:16:05.352Z,33.4
2017-03-24T01:18:05.563Z,33.4
2017-03-24T01:20:05.248Z,33.6
2017-03-24T01:22:05.480Z,33.4
2017-03-24T01:24:05.471Z,33.4
2017-03-24T01:26:05.933Z,33.5
2017-03-24T01:28:07.735Z,33.6
2017-03-24T01:30:08.712Z,33.6
2017-03-24T01:32:10.609Z,33.5
2017-03-24T01:34:05.307Z,33.5
2017-03-24T01:36:05.222Z,33.5
2017-03-24T01:38:05.914Z,33.6
2017-03-24T01:40:05.637Z,33.6
2017-03-24T01:42:08.207Z,33.6
2017-03-24T01:44:23.589Z,33.6
2017-03-24T01:46:05.831Z,33.7
2017-03-24T01:48:15.845Z,33.7
2017-03-24T01:50:05.547Z,33.7
2017-03-24T01:52:05.314Z,33.7
2017-03-24T01:54:05.211Z,33.7
2017-03-24T01:56:05.912Z,33.5
2017-03-24T01:58:05.761Z,33.6
2017-03-24T02:00:05.950Z,33.7
2017-03-24T02:02:08.169Z,33.7
2017-03-24T02:04:07.910Z,33.3
2017-03-24T02:06:05.981Z,33.5
2017-03-24T02:08:13.333Z,33.6
2017-03-24T02:10:05.000Z,33.6
2017-03-24T02:12:06.076Z,33.6
2017-03-24T02:14:08.878Z,33.3
2017-03-24T02:16:05.572Z,33.3
2017-03-24T02:18:05.814Z,33.5
2017-03-24T02:20:05.603Z,33.3
2017-03-24T02:22:05.296Z,33.3
2017-03-24T02:24:06.289Z,33.3
2017-03-24T02:26:07.577Z,33.3
2017-03-24T02:28:07.813Z,33.3
2017-03-24T02:30:05.912Z,33.5
2017-03-24T02:32:10.703Z,33.2
2017-03-24T02:34:05.539Z,33.2
2017-03-24T02:36:05.588Z,33.2
2017-03-24T02:38:05.291Z,33.2
2017-03-24T02:40:08.556Z,33.2
2017-03-24T02:42:08.202Z,33.2
2017-03-24T02:44:05.952Z,33.1
2017-03-24T02:46:05.966Z,33.1
2017-03-24T02:48:06.062Z,33.1
2017-03-24T02:50:10.829Z,33.2
2017-03-24T02:52:05.511Z,33.1
2017-03-24T02:54:06.281Z,33.1
2017-03-24T02:56:10.129Z,33.1
2017-03-24T02:58:08.425Z,33
2017-03-24T03:00:05.222Z,33
2017-03-24T03:02:05.640Z,33.1
2017-03-24T03:04:05.353Z,33
2017-03-24T03:06:05.154Z,33
2017-03-24T03:08:05.907Z,33
2017-03-24T03:10:08.110Z,33
2017-03-24T03:12:08.672Z,33
2017-03-24T03:14:05.397Z,33
2017-03-24T03:16:05.646Z,33
2017-03-24T03:18:05.911Z,33
2017-03-24T03:20:05.607Z,33
2017-03-24T03:22:07.812Z,32.9
2017-03-24T03:24:05.645Z,33
2017-03-24T03:26:05.405Z,32.9
2017-03-24T03:28:05.190Z,33
2017-03-24T03:30:08.618Z,32.9
2017-03-24T03:32:05.360Z,32.9
2017-03-24T03:34:05.200Z,32.7
2017-03-24T03:36:06.639Z,32.9
2017-03-24T03:38:05.409Z,32.9
2017-03-24T03:40:05.185Z,32.6
2017-03-24T03:42:08.709Z,32.9
2017-03-24T03:44:05.431Z,32.8
2017-03-24T03:46:05.159Z,32.9
2017-03-24T03:48:11.992Z,32.8
2017-03-24T03:50:05.856Z,32.6
2017-03-24T03:52:08.039Z,32.8
2017-03-24T03:54:05.865Z,32.6
2017-03-24T03:56:05.640Z,32.8
2017-03-24T03:58:05.425Z,32.6
2017-03-24T04:00:05.472Z,32.6
2017-03-24T04:02:05.685Z,32.8
2017-03-24T04:04:07.917Z,32.8
2017-03-24T04:06:05.951Z,32.6
2017-03-24T04:08:05.691Z,32.5
2017-03-24T04:10:05.922Z,32.5
2017-03-24T04:12:05.933Z,32.6
2017-03-24T04:14:05.762Z,32.5
2017-03-24T04:16:05.483Z,32.6
2017-03-24T04:18:05.687Z,32.8
2017-03-24T04:20:05.422Z,32.5
2017-03-24T04:22:12.889Z,32.5
2017-03-24T04:24:08.473Z,32.5
2017-03-24T04:26:05.165Z,32.5
2017-03-24T04:28:05.393Z,32.5
2017-03-24T04:30:06.135Z,32.5
2017-03-24T04:32:08.339Z,32.5
2017-03-24T04:34:10.093Z,32.5
2017-03-24T04:36:06.907Z,32.5
2017-03-24T04:38:11.157Z,32.5
2017-03-24T04:40:10.930Z,32.5
2017-03-24T04:42:05.902Z,32.5
2017-03-24T04:44:05.633Z,32.5
2017-03-24T04:46:05.321Z,32.5
2017-03-24T04:48:05.374Z,32.5
2017-03-24T04:50:05.072Z,32.5
2017-03-24T04:52:05.856Z,32.5
2017-03-24T04:54:05.257Z,32.5
2017-03-24T04:56:06.041Z,32.5
2017-03-24T04:58:05.787Z,32.5
2017-03-24T05:00:05.753Z,32.5
2017-03-24T05:02:08.026Z,32.5
2017-03-24T05:04:05.762Z,32.4
2017-03-24T05:06:08.336Z,32.4
2017-03-24T05:08:08.069Z,32.4
2017-03-24T05:10:11.041Z,32.4
2017-03-24T05:12:06.111Z,32.4
2017-03-24T05:14:05.806Z,32.5
2017-03-24T05:16:05.560Z,32.4
2017-03-24T05:18:05.835Z,32.4
2017-03-24T05:20:05.562Z,32.4
2017-03-24T05:22:05.254Z,32.4
2017-03-24T05:24:10.700Z,32.3
2017-03-24T05:26:08.839Z,32.3
2017-03-24T05:28:05.608Z,32.4
2017-03-24T05:30:05.685Z,32.3
2017-03-24T05:32:05.355Z,32.3
2017-03-24T05:34:05.057Z,32.4
2017-03-24T05:36:06.082Z,32.3
2017-03-24T05:38:05.837Z,32.3
2017-03-24T05:40:05.704Z,32.3
2017-03-24T05:42:05.778Z,32.3
2017-03-24T05:44:05.609Z,32.1
2017-03-24T05:46:05.599Z,32.3
2017-03-24T05:48:08.629Z,32.3
2017-03-24T05:50:05.342Z,32.3
2017-03-24T05:52:07.578Z,32.3
2017-03-24T05:54:05.763Z,32.3
2017-03-24T05:56:07.625Z,32.3
2017-03-24T05:58:06.296Z,32.3
2017-03-24T06:00:06.345Z,32.3
2017-03-24T06:02:10.105Z,32.2
2017-03-24T06:04:08.436Z,32.3
2017-03-24T06:06:05.421Z,32.3
2017-03-24T06:08:05.151Z,32.3
2017-03-24T06:10:08.434Z,32.2
2017-03-24T06:12:06.176Z,32.3
2017-03-24T06:14:05.597Z,32.3
2017-03-24T06:16:05.254Z,32.2
2017-03-24T06:18:08.063Z,32.2
2017-03-24T06:20:05.758Z,32
2017-03-24T06:22:05.113Z,32.2
2017-03-24T06:24:06.344Z,32.2
2017-03-24T06:26:05.067Z,32.3
2017-03-24T06:28:05.778Z,32.2
2017-03-24T06:30:14.189Z,32
2017-03-24T06:32:05.982Z,32
2017-03-24T06:34:08.391Z,32
2017-03-24T06:36:05.460Z,32.2
2017-03-24T06:38:05.195Z,32.2
2017-03-24T06:40:05.966Z,32.2
2017-03-24T06:42:05.731Z,32.2
2017-03-24T06:44:05.448Z,32.2
2017-03-24T06:46:05.570Z,32.2
2017-03-24T06:48:08.147Z,32.2
2017-03-24T06:50:05.933Z,32.2
2017-03-24T06:52:05.886Z,32.2
2017-03-24T06:54:06.513Z,31.9
2017-03-24T06:56:08.281Z,31.9
2017-03-24T06:58:06.006Z,32
2017-03-24T07:00:06.009Z,32.1
2017-03-24T07:02:06.181Z,32.1
2017-03-24T07:04:05.949Z,32.1
2017-03-24T07:06:08.403Z,32.1
2017-03-24T07:08:07.705Z,32.1
2017-03-24T07:10:11.161Z,32.1
2017-03-24T07:12:13.437Z,32.1
2017-03-24T07:14:10.242Z,32.1
2017-03-24T07:16:05.985Z,32.1
2017-03-24T07:18:06.214Z,32.1
2017-03-24T07:20:05.942Z,32.1
2017-03-24T07:22:05.182Z,32.1
2017-03-24T07:24:11.124Z,31.9
2017-03-24T07:26:05.858Z,31.9
2017-03-24T07:28:05.835Z,32.1
2017-03-24T07:30:05.471Z,32.1
2017-03-24T07:32:08.803Z,32.1
2017-03-24T07:34:05.993Z,32.1
2017-03-24T07:36:07.141Z,32.1
2017-03-24T07:38:05.841Z,32.1
2017-03-24T07:40:05.600Z,32.1
2017-03-24T07:42:10.341Z,32.1
2017-03-24T07:44:05.037Z,32.1
2017-03-24T07:46:05.770Z,32.1
2017-03-24T07:48:05.742Z,32
2017-03-24T07:50:05.208Z,32.1
2017-03-24T07:52:08.509Z,32
2017-03-24T07:54:05.392Z,32
2017-03-24T07:56:05.107Z,32
2017-03-24T07:58:10.919Z,32
2017-03-24T08:00:05.974Z,32
2017-03-24T08:02:05.857Z,32.2
2017-03-24T08:04:08.461Z,32.1
2017-03-24T08:06:18.832Z,32.1
2017-03-24T08:08:05.588Z,32.1
2017-03-24T08:10:05.365Z,32.2
2017-03-24T08:12:05.721Z,32.1
2017-03-24T08:14:05.435Z,32.1
2017-03-24T08:16:08.299Z,32
2017-03-24T08:18:05.890Z,32
2017-03-24T08:20:05.126Z,32.1
2017-03-24T08:22:06.098Z,32.1
2017-03-24T08:24:05.921Z,32.1
2017-03-24T08:26:10.726Z,32.1
2017-03-24T08:28:06.101Z,32.1
2017-03-24T08:30:06.113Z,32.1
2017-03-24T08:32:05.841Z,32.1
2017-03-24T08:34:05.595Z,32.1
2017-03-24T08:36:06.137Z,32
2017-03-24T08:38:05.682Z,32
2017-03-24T08:40:05.354Z,32.1
2017-03-24T08:42:05.209Z,32.1
2017-03-24T08:44:05.925Z,32.1
2017-03-24T08:46:05.682Z,32.1
2017-03-24T08:48:05.617Z,32.1
2017-03-24T08:50:08.353Z,32.1
2017-03-24T08:52:05.704Z,32.1
2017-03-24T08:54:05.789Z,32.1
2017-03-24T08:56:05.461Z,32.1
2017-03-24T08:58:05.118Z,32.1
2017-03-24T09:00:06.153Z,32.1
2017-03-24T09:02:05.861Z,32.1
2017-03-24T09:04:05.552Z,32
2017-03-24T09:06:05.993Z,32
2017-03-24T09:08:05.808Z,32
2017-03-24T09:10:05.751Z,32
2017-03-24T09:12:05.615Z,32
2017-03-24T09:14:05.042Z,31.8
2017-03-24T09:16:05.740Z,32
2017-03-24T09:18:08.356Z,32
2017-03-24T09:20:05.179Z,32
2017-03-24T09:22:05.138Z,32
2017-03-24T09:24:08.717Z,32
2017-03-24T09:26:07.863Z,32
2017-03-24T09:28:05.518Z,32
2017-03-24T09:30:05.622Z,32
2017-03-24T09:32:05.308Z,32
2017-03-24T09:34:06.001Z,32
2017-03-24T09:36:05.944Z,31.9
2017-03-24T09:38:05.193Z,32
2017-03-24T09:40:06.416Z,32
2017-03-24T09:42:05.490Z,32
2017-03-24T09:44:05.203Z,32
2017-03-24T09:46:05.905Z,31.9
2017-03-24T09:48:05.921Z,32
2017-03-24T09:50:08.144Z,31.9
2017-03-24T09:52:05.904Z,31.9
2017-03-24T09:54:06.058Z,31.9
2017-03-24T09:56:05.759Z,31.9
2017-03-24T09:58:08.268Z,32
2017-03-24T10:00:08.866Z,31.9
2017-03-24T10:02:05.541Z,31.9
2017-03-24T10:04:05.262Z,31.9
2017-03-24T10:06:06.266Z,31.9
2017-03-24T10:08:06.007Z,31.9
2017-03-24T10:10:05.705Z,31.8
2017-03-24T10:12:05.791Z,31.9
2017-03-24T10:14:08.383Z,31.8
2017-03-24T10:16:05.125Z,31.8
2017-03-24T10:18:07.762Z,31.8
2017-03-24T10:20:05.960Z,31.8
2017-03-24T10:22:05.791Z,31.9
2017-03-24T10:24:05.840Z,31.8
2017-03-24T10:26:05.594Z,31.8
2017-03-24T10:28:05.370Z,31.8
2017-03-24T10:30:05.663Z,31.8
2017-03-24T10:32:05.430Z,31.8
2017-03-24T10:34:05.352Z,31.8
2017-03-24T10:36:05.133Z,31.8
2017-03-24T10:38:10.938Z,31.8
2017-03-24T10:40:05.608Z,31.8
2017-03-24T10:42:05.657Z,31.8
2017-03-24T10:44:08.416Z,32.1
2017-03-24T10:46:05.291Z,32.1
2017-03-24T10:48:06.278Z,32.1
2017-03-24T10:50:05.988Z,32.1
2017-03-24T10:52:05.684Z,32.2
2017-03-24T10:54:06.103Z,32.1
2017-03-24T10:56:05.327Z,32.1
2017-03-24T10:58:05.027Z,32.1
2017-03-24T11:00:05.975Z,32.1
2017-03-24T11:02:05.954Z,32.1
2017-03-24T11:04:10.904Z,32.1
2017-03-24T11:06:05.711Z,32.1
2017-03-24T11:08:05.410Z,32.1
2017-03-24T11:10:05.130Z,32.1
2017-03-24T11:12:08.651Z,32
2017-03-24T11:14:05.377Z,32.1
2017-03-24T11:16:05.104Z,32.1
2017-03-24T11:18:13.938Z,32
2017-03-24T11:20:05.613Z,32
2017-03-24T11:22:05.332Z,32
2017-03-24T11:24:05.737Z,32
2017-03-24T11:26:04.966Z,32
2017-03-24T11:28:06.081Z,32
2017-03-24T11:30:05.917Z,32.2
2017-03-24T11:32:07.131Z,32
2017-03-24T11:34:07.841Z,32.2
2017-03-24T11:36:06.186Z,32
2017-03-24T11:38:12.051Z,32
2017-03-24T11:40:05.833Z,31.9
2017-03-24T11:42:05.845Z,31.9
2017-03-24T11:44:10.780Z,32.1
2017-03-24T11:46:05.486Z,31.8
2017-03-24T11:48:05.494Z,31.9
2017-03-24T11:50:06.206Z,32.1
2017-03-24T11:52:05.927Z,32.4
2017-03-24T11:54:07.798Z,32.7
2017-03-24T11:56:05.492Z,32.4
2017-03-24T11:58:05.548Z,32.4
2017-03-24T12:00:08.709Z,32.5
2017-03-24T12:02:05.483Z,32.5
2017-03-24T12:04:05.204Z,32.6
2017-03-24T12:06:11.316Z,32.3
2017-03-24T12:08:05.474Z,32.3
2017-03-24T12:10:05.259Z,32.5
2017-03-24T12:12:05.909Z,32.4
2017-03-24T12:14:05.123Z,32.3
2017-03-24T12:16:05.825Z,32.5
2017-03-24T12:18:05.968Z,32.1
2017-03-24T12:20:05.635Z,32
2017-03-24T12:22:06.066Z,32
2017-03-24T12:24:08.423Z,31.9
2017-03-24T12:26:05.099Z,31.9
2017-03-24T12:28:05.772Z,32.1
2017-03-24T12:30:05.105Z,31.9
2017-03-24T12:32:05.777Z,32
2017-03-24T12:34:10.893Z,31.9
2017-03-24T12:36:09.437Z,32
2017-03-24T12:38:05.722Z,32
2017-03-24T12:40:05.455Z,32
2017-03-24T12:42:05.973Z,31.9
2017-03-24T12:44:05.688Z,32.1
2017-03-24T12:46:05.392Z,31.9
2017-03-24T12:48:05.487Z,32
2017-03-24T12:50:05.446Z,32
2017-03-24T12:52:05.277Z,32.1
2017-03-24T12:54:06.249Z,32.1
2017-03-24T12:56:06.178Z,32.2
2017-03-24T12:58:05.705Z,32.2
2017-03-24T13:00:05.753Z,32
2017-03-24T13:02:05.706Z,32.1
2017-03-24T13:04:06.432Z,32.1
2017-03-24T13:06:05.932Z,32.1
2017-03-24T13:08:10.691Z,32.4
2017-03-24T13:10:05.736Z,32.4
2017-03-24T13:12:05.513Z,32.4
2017-03-24T13:14:05.224Z,32.5
2017-03-24T13:16:05.896Z,32.7
2017-03-24T13:18:06.495Z,32.9
2017-03-24T13:20:05.406Z,33.1
2017-03-24T13:22:07.774Z,33.6
2017-03-24T13:24:09.038Z,33.6
2017-03-24T13:26:05.893Z,33.6
2017-03-24T13:28:05.102Z,33.8
2017-03-24T13:30:07.364Z,34
2017-03-24T13:32:05.470Z,34.3
2017-03-24T13:34:05.917Z,34.3
2017-03-24T13:36:07.677Z,34.5
2017-03-24T13:38:05.444Z,34.4
2017-03-24T13:40:11.323Z,33.8
2017-03-24T13:42:05.785Z,33.8
2017-03-24T13:44:08.091Z,33.8
2017-03-24T13:46:08.456Z,33.8
2017-03-24T13:48:05.328Z,33.8
2017-03-24T13:50:05.474Z,33.8
2017-03-24T13:52:07.731Z,33.9
2017-03-24T13:54:05.745Z,33.9
2017-03-24T13:56:07.945Z,33.6
2017-03-24T13:58:06.237Z,33.6
2017-03-24T14:00:06.138Z,33.5
2017-03-24T14:02:05.369Z,33.3
2017-03-24T14:04:07.730Z,33.6
2017-03-24T14:06:10.628Z,33.5
2017-03-24T14:08:05.601Z,33.5
2017-03-24T14:10:05.312Z,33.4
2017-03-24T14:12:08.302Z,33.4
2017-03-24T14:14:06.094Z,33.4
2017-03-24T14:16:08.332Z,33.2
2017-03-24T14:18:05.589Z,33.2
2017-03-24T14:20:05.249Z,33.2
2017-03-24T14:22:06.066Z,33.1
2017-03-24T14:24:05.963Z,33.2
2017-03-24T14:26:42.277Z,33.2
2017-03-24T14:28:05.224Z,33.2
2017-03-24T14:30:11.321Z,33.1
2017-03-24T14:32:05.133Z,32.9
2017-03-24T14:34:05.404Z,33.1
2017-03-24T14:36:05.445Z,33.1
2017-03-24T14:38:05.952Z,32.9
2017-03-24T14:40:07.645Z,33.1
2017-03-24T14:42:06.085Z,33.1
2017-03-24T14:44:05.759Z,32.8
2017-03-24T14:46:09.016Z,32.8
2017-03-24T14:48:08.457Z,32.8
2017-03-24T14:50:07.646Z,33
2017-03-24T14:52:05.361Z,32.8
2017-03-24T14:54:05.605Z,32.8
2017-03-24T14:56:05.822Z,32.8
2017-03-24T14:58:05.346Z,32.7
2017-03-24T15:00:05.245Z,32.7
2017-03-24T15:02:06.298Z,32.7
2017-03-24T15:04:06.008Z,32.6
2017-03-24T15:06:06.855Z,32.6
2017-03-24T15:08:05.553Z,32.6
2017-03-24T15:10:05.314Z,32.6
2017-03-24T15:12:05.330Z,32.6
2017-03-24T15:14:05.004Z,32.6
2017-03-24T15:16:05.717Z,32.6
2017-03-24T15:18:05.932Z,32.6
2017-03-24T15:20:05.666Z,32.6
2017-03-24T15:22:08.519Z,32.6
2017-03-24T15:24:05.586Z,32.6
2017-03-24T15:26:05.272Z,32.5
2017-03-24T15:28:05.019Z,32.6
2017-03-24T15:30:06.585Z,32.6
2017-03-24T15:32:05.311Z,32.5
2017-03-24T15:34:06.312Z,32.6
2017-03-24T15:36:09.334Z,32.6
2017-03-24T15:38:05.071Z,32.6
2017-03-24T15:40:05.812Z,32.6
2017-03-24T15:42:05.819Z,32.6
2017-03-24T15:44:05.521Z,32.6
2017-03-24T15:46:05.210Z,32.6
2017-03-24T15:48:07.025Z,32.6
2017-03-24T15:50:05.959Z,32.6
2017-03-24T15:52:05.652Z,32.6
2017-03-24T15:54:06.255Z,32.6
2017-03-24T15:56:05.946Z,32.8
2017-03-24T15:58:09.372Z,33
2017-03-24T16:00:05.244Z,33
2017-03-24T16:02:05.968Z,33.1
2017-03-24T16:04:05.634Z,33.3
2017-03-24T16:06:05.643Z,33.4
2017-03-24T16:08:05.418Z,33.3
2017-03-24T16:10:05.134Z,33.6
2017-03-24T16:12:11.095Z,33.6
2017-03-24T16:14:07.916Z,33.7
2017-03-24T16:16:05.630Z,33.7
2017-03-24T16:18:08.211Z,33.6
2017-03-24T16:20:10.961Z,33.6
2017-03-24T16:22:05.840Z,33.6
2017-03-24T16:24:05.965Z,33.6
2017-03-24T16:26:05.644Z,33.6
2017-03-24T16:28:05.442Z,33.7
2017-03-24T16:30:05.303Z,33.6
2017-03-24T16:32:08.941Z,33.6
2017-03-24T16:34:05.539Z,33.6
2017-03-24T16:36:05.383Z,33.7
2017-03-24T16:38:05.409Z,33.6
2017-03-24T16:40:07.637Z,33.6
2017-03-24T16:42:05.731Z,33.6
2017-03-24T16:44:05.448Z,33.6
2017-03-24T16:46:05.136Z,33.7
2017-03-24T16:48:06.982Z,33.6
2017-03-24T16:50:05.175Z,33.6
2017-03-24T16:52:05.940Z,33.5
2017-03-24T16:54:06.008Z,33.6
2017-03-24T16:56:07.045Z,33.4
2017-03-24T16:58:05.712Z,33.6
2017-03-24T17:00:05.559Z,33.4
2017-03-24T17:02:05.275Z,33.6
2017-03-24T17:04:05.514Z,33.4
2017-03-24T17:06:07.859Z,33.4
2017-03-24T17:08:05.565Z,33.3
2017-03-24T17:10:05.623Z,33.5
2017-03-24T17:12:08.181Z,33.4
2017-03-24T17:14:08.526Z,33.4
2017-03-24T17:16:05.786Z,33.4
2017-03-24T17:18:13.484Z,33.4
2017-03-24T17:20:05.630Z,33.4
2017-03-24T17:22:05.208Z,33.4
2017-03-24T17:24:06.072Z,33.4
2017-03-24T17:26:07.998Z,33.2
2017-03-24T17:28:05.687Z,33.4
2017-03-24T17:30:05.697Z,33.4
2017-03-24T17:32:07.936Z,33.1
2017-03-24T17:34:05.691Z,33.1
2017-03-24T17:36:05.995Z,33.3
2017-03-24T17:38:05.106Z,33.1
2017-03-24T17:40:06.011Z,33.2
2017-03-24T17:42:10.975Z,33.1
2017-03-24T17:44:05.203Z,33.1
2017-03-24T17:46:05.899Z,33.1
2017-03-24T17:48:05.251Z,33.1
2017-03-24T17:50:11.063Z,33.1
2017-03-24T17:52:05.770Z,33.1
2017-03-24T17:54:05.709Z,33.2
2017-03-24T17:56:07.990Z,33.2
2017-03-24T17:58:05.981Z,33.2
2017-03-24T18:00:05.944Z,33.6
2017-03-24T18:02:13.258Z,33
2017-03-24T18:04:05.217Z,33
2017-03-24T18:06:08.581Z,33.3
2017-03-24T18:08:05.877Z,33.1
2017-03-24T18:10:05.597Z,33.2
2017-03-24T18:12:05.449Z,33.2
2017-03-24T18:14:08.018Z,33
2017-03-24T18:16:05.713Z,33
2017-03-24T18:18:05.769Z,33
2017-03-24T18:20:05.423Z,33.1
2017-03-24T18:22:05.241Z,33
2017-03-24T18:24:06.114Z,33.2
2017-03-24T18:26:05.546Z,33.2
2017-03-24T18:28:07.874Z,33.1
2017-03-24T18:30:05.936Z,33.1
2017-03-24T18:32:05.621Z,33.1
2017-03-24T18:34:05.409Z,33.5
2017-03-24T18:36:06.678Z,33.4
2017-03-24T18:38:05.571Z,33.1
2017-03-24T18:40:05.312Z,33.2
2017-03-24T18:42:08.689Z,33.3
2017-03-24T18:44:05.405Z,33.2
2017-03-24T18:46:07.945Z,33.4
2017-03-24T18:48:09.518Z,33.6
2017-03-24T18:50:05.216Z,33.6
2017-03-24T18:52:05.899Z,33.4
2017-03-24T18:54:05.851Z,33.5
2017-03-24T18:56:05.588Z,33.6
2017-03-24T18:58:05.277Z,33.6
2017-03-24T19:00:05.889Z,33.6
2017-03-24T19:02:05.645Z,33.4
2017-03-24T19:04:05.349Z,33.6
2017-03-24T19:06:06.380Z,33.9
2017-03-24T19:08:05.089Z,33.7
2017-03-24T19:10:05.340Z,33.8
2017-03-24T19:12:06.060Z,33.5
2017-03-24T19:14:05.352Z,33.9
2017-03-24T19:16:05.070Z,33.6
2017-03-24T19:18:08.813Z,33.8
2017-03-24T19:20:05.582Z,33.5
2017-03-24T19:22:05.448Z,33.5
2017-03-24T19:24:05.441Z,33.6
2017-03-24T19:26:05.130Z,33.6
2017-03-24T19:28:08.381Z,33.4
2017-03-24T19:30:12.962Z,33.4
2017-03-24T19:32:05.640Z,33.4
2017-03-24T19:34:06.675Z,33.5
2017-03-24T19:36:05.643Z,33.4
2017-03-24T19:38:05.324Z,33.3
2017-03-24T19:40:05.069Z,33.3
2017-03-24T19:42:07.061Z,33.2
2017-03-24T19:44:10.600Z,33.1
2017-03-24T19:46:05.324Z,33.1
2017-03-24T19:48:05.542Z,32.9
2017-03-24T19:50:07.957Z,33
2017-03-24T19:52:05.229Z,33
2017-03-24T19:54:06.202Z,33.1
2017-03-24T19:56:05.910Z,33.1
2017-03-24T19:58:05.632Z,33
2017-03-24T20:00:06.129Z,33.3
2017-03-24T20:02:05.334Z,33.5
2017-03-24T20:04:07.640Z,33.1
2017-03-24T20:06:08.324Z,33.1
2017-03-24T20:08:05.584Z,33.1
2017-03-24T20:10:05.369Z,33.3
2017-03-24T20:12:05.210Z,33.4
2017-03-24T20:14:06.019Z,33.4
2017-03-24T20:16:10.917Z,33.4
2017-03-24T20:18:05.942Z,33.4
2017-03-24T20:20:05.714Z,33.3
2017-03-24T20:22:05.789Z,33.4
2017-03-24T20:24:05.843Z,33.6
2017-03-24T20:26:05.646Z,33.6
2017-03-24T20:28:05.248Z,33.7
2017-03-24T20:30:06.385Z,33.8
2017-03-24T20:32:05.384Z,33.8
2017-03-24T20:34:05.113Z,33.7
2017-03-24T20:36:05.623Z,33.4
2017-03-24T20:38:08.067Z,33.8
2017-03-24T20:40:05.774Z,33.8
2017-03-24T20:42:08.956Z,35.2
2017-03-24T20:44:05.307Z,35.2
2017-03-24T20:46:05.978Z,35.2
2017-03-24T20:48:05.853Z,35.2
2017-03-24T20:50:05.805Z,36
2017-03-24T20:52:08.371Z,36.2
2017-03-24T20:54:05.385Z,36.3
2017-03-24T20:56:08.344Z,36.7
2017-03-24T20:58:07.326Z,36.7
2017-03-24T21:00:10.855Z,37.1
2017-03-24T21:02:08.085Z,37.3
2017-03-24T21:04:05.970Z,37.3
2017-03-24T21:06:08.659Z,37.1
2017-03-24T21:08:05.396Z,37
2017-03-24T21:10:05.335Z,37.8
2017-03-24T21:12:05.965Z,37.6
2017-03-24T21:14:05.656Z,37.7
2017-03-24T21:16:07.941Z,37.8
2017-03-24T21:18:08.237Z,37.8
2017-03-24T21:20:05.915Z,37.8
2017-03-24T21:22:05.664Z,37.9
2017-03-24T21:24:08.036Z,37.9
2017-03-24T21:26:05.651Z,37.9
2017-03-24T21:28:05.597Z,37.8
2017-03-24T21:30:05.614Z,37.8
2017-03-24T21:32:05.317Z,37.6
2017-03-24T21:34:05.086Z,37.5
2017-03-24T21:36:11.024Z,37.6
2017-03-24T21:38:05.274Z,37.5
2017-03-24T21:40:05.603Z,37.5
2017-03-24T21:42:06.232Z,37.5
2017-03-24T21:44:05.952Z,37.5
2017-03-24T21:46:05.694Z,36.3
2017-03-24T21:48:05.512Z,36.2
2017-03-24T21:50:12.834Z,35
2017-03-24T21:52:05.564Z,35.1
2017-03-24T21:54:05.637Z,35
2017-03-24T21:56:05.905Z,34.8
2017-03-24T21:58:08.001Z,34.8
2017-03-24T22:00:06.618Z,34.8
2017-03-24T22:02:10.361Z,34
2017-03-24T22:04:10.144Z,33.6
2017-03-24T22:06:06.011Z,33.6
2017-03-24T22:08:05.708Z,32.8
2017-03-24T22:10:05.426Z,33
2017-03-24T22:12:05.728Z,32.6
2017-03-24T22:14:05.794Z,32.6
2017-03-24T22:16:05.601Z,32.2
2017-03-24T22:18:05.711Z,32
2017-03-24T22:20:05.415Z,32
2017-03-24T22:22:05.107Z,31.6
2017-03-24T22:24:05.947Z,31.6
2017-03-24T22:26:05.653Z,30.3
2017-03-24T22:28:05.323Z,29.7
2017-03-24T22:30:05.327Z,29.7
2017-03-24T22:32:05.093Z,29.8
2017-03-24T22:34:05.802Z,30
2017-03-24T22:36:05.904Z,29.6
2017-03-24T22:38:05.660Z,29.7
2017-03-24T22:40:07.910Z,30.4
2017-03-24T22:42:08.565Z,30.9
2017-03-24T22:44:05.413Z,30.9
2017-03-24T22:46:05.477Z,30.8
2017-03-24T22:48:06.250Z,30.7
2017-03-24T22:50:05.954Z,30.4
2017-03-24T22:52:05.736Z,30.5
2017-03-24T22:54:05.728Z,30.3
2017-03-24T22:56:05.627Z,30.1
2017-03-24T22:58:05.427Z,30
2017-03-24T23:00:06.102Z,29.9
2017-03-24T23:02:06.138Z,29.9
2017-03-24T23:04:05.919Z,29.9
2017-03-24T23:06:06.775Z,29.6
2017-03-24T23:08:05.002Z,29.7
2017-03-24T23:10:08.309Z,29.5
2017-03-24T23:12:05.453Z,29.5
2017-03-24T23:14:05.289Z,29.5
2017-03-24T23:16:05.107Z,29.4
2017-03-24T23:18:08.473Z,29.1
2017-03-24T23:20:05.351Z,29.2
2017-03-24T23:22:05.215Z,29.2
2017-03-24T23:24:10.378Z,29.2
2017-03-24T23:26:07.701Z,29.1
2017-03-24T23:28:05.512Z,29.2
2017-03-24T23:30:05.581Z,29.2
2017-03-24T23:32:05.444Z,29.3
2017-03-24T23:34:05.611Z,29.2
2017-03-24T23:36:08.005Z,29.2
2017-03-24T23:38:05.732Z,29.3
2017-03-24T23:40:05.459Z,29.2
2017-03-24T23:42:06.012Z,29.2
2017-03-24T23:44:08.361Z,29
2017-03-24T23:46:05.075Z,29.2
2017-03-24T23:48:05.967Z,29.1
2017-03-24T23:50:05.926Z,29
2017-03-24T23:52:05.149Z,29
2017-03-24T23:54:13.734Z,29.1
2017-03-24T23:56:07.941Z,29
2017-03-24T23:58:05.858Z,29
